Ashville, New York
Current Conditions -  °F | °C
As of 5:35 PM on Saturday 25 Oct 2014 (Local Time) from KJHW Reporting Station
Overcast Overcast  
Wind Chill: 55°   Ceiling: 2600
Heat Index: 55°   Visibility: 9mi
Dew Point: 48°   Wind: 17mph
Humidity: 77%   Direction: 260°W
Pressure: 29.7"   Gusts: 26mph
Location:  42.1°N, 79.38°W
Report Text: KJHW 252135Z AUTO 26015G23KT 9SM SCT018 BKN026 OVC033 13/09 A2970 RMK AO1
Loading
Personal Weather Stations






























Interactive Weather Map
Tropical Storm Tracking
New forecast layout! Learn more

10-Day Weather Forecast

Advertisements
Track Severe Weather on mobile